Laurel, IN (47024)

4:55 AM EDT on July 06, 2015 (GMT -0400)
NW Franklin County, IN | | Change Station
CLOSE
Current Station
Personal Weather Station
Location: Laurel, IN
Elevation: 1024 ft
Nearby Weather Stations

Elev 1024 ft 39.51 °N, 85.25 °W | Updated 41 seconds ago

Clear
Clear
60.5 °F
Feels Like 60.5 °F
N
0.0
Wind Variable Wind from ENE
Gusts 0.0 mph

Today
High -- | Low -- °F
--% Chance of Precip.
Yesterday
High -- | Low -- °F
Precip. -- in
6:19 AM 9:10 PM
Waning Gibbous, 77% visible
Pressure 30.04 in
Visibility 3.0 miles
Clouds Clear
Dew Point 60 °F
Humidity 100%
Rainfall 0.00 in
Snow Depth Not available.
UV 0 out of 12
Pollen 3.20 out of 12
Air Quality Not available.
Flu Activity Not available.
METAR KGEZ 060853Z AUTO 00000KT 3SM BR CLR 17/15 A3006 RMK AO2 SLP173 T01670150 55001

More Conditions Fewer Conditions

Pressure 30.04 in
Visibility 3.0 miles
Clouds Clear
Dew Point 60 °F
Humidity 100%
Rainfall 0.00 in
Snow Depth Not available.
UV 0 out of 12
Pollen 3.20 out of 12
Air Quality Not available.
Flu Activity Not available.
METAR KGEZ 060853Z AUTO 00000KT 3SM BR CLR 17/15 A3006 RMK AO2 SLP173 T01670150 55001

More Conditions Fewer Conditions

10-Day Weather Forecast

×

Almanac

Astronomy

Jul. 06, 2015 Rise Set
Actual Time
Civil Twilight
Nautical Twilight
Astronomical Twilight
Moon
Length of Visible Light
Length of Day
Tomorrow will be .
, % of the Moon is Illuminated

Today's Extremes

State Highs State Lows

Community

WunderPhotos

Upload Photos

1,835,519 photos uploaded!

WunderBlogs® & News

Nearby

Air Quality

  Air Quality AQ Index Pollutant
Not available.

Snow Depth

Station Depth Elevation

Earthquake Activity

City Distance Mag. Time & Date
Minimum magnitude displayed is 2.5.

Coastal Water Temperatures

Place Temperature

Stations

Nearby Weather Stations

Station Location Temp. Windchill Dew Point Humidity Wind Precip. Elev Updated Type